Time;durP1;ratioP1;P1;durP2;ratioP2;P2;SDS_P1;SDS_P2;PMS_P1;PMS_P2;Temp;Humidity;BMP_temperature;BMP_pressure;BME280_temperature;BME280_humidity;BME280_pressure;Samples;Min_cycle;Max_cycle;Signal;HPM_P1;HPM_P2
2022/01/01 00:02:24;;;;;;;47.92;16.77;;;;;;;11.69;100.00;102215.59;5091136;28;20392;-81
2022/01/01 00:04:49;;;;;;;39.05;16.75;;;;;;;11.78;100.00;102238.63;5092164;28;20068;-82
2022/01/01 00:07:16;;;;;;;50.80;17.58;;;;;;;11.70;100.00;102232.50;5092078;28;20051;-81
2022/01/01 00:09:43;;;;;;;43.80;16.38;;;;;;;11.76;100.00;102223.72;5073427;28;20039;-82
2022/01/01 00:12:09;;;;;;;46.70;18.33;;;;;;;11.87;100.00;102241.22;5073635;28;20028;-82
2022/01/01 00:14:35;;;;;;;42.30;16.65;;;;;;;11.86;100.00;102237.69;5091210;28;20442;-82
2022/01/01 00:20:22;;;;;;;42.20;17.02;;;;;;;11.84;100.00;102231.66;5091885;28;20117;-81
2022/01/01 00:26:09;;;;;;;52.75;20.20;;;;;;;11.83;100.00;102255.97;5092176;28;20079;-80
2022/01/01 00:31:56;;;;;;;59.38;20.60;;;;;;;11.83;100.00;102245.25;5092158;28;20090;-80
2022/01/01 00:34:21;;;;;;;51.40;17.25;;;;;;;11.86;100.00;102242.22;5091865;28;20032;-80
2022/01/01 00:36:46;;;;;;;56.03;18.15;;;;;;;11.89;100.00;102249.88;5073719;28;20028;-79
2022/01/01 00:39:12;;;;;;;55.30;18.23;;;;;;;11.83;100.00;102239.91;5072774;28;20036;-81
2022/01/01 00:41:37;;;;;;;56.10;16.83;;;;;;;11.89;100.00;102252.56;5073183;28;20353;-81
2022/01/01 00:44:02;;;;;;;45.43;14.80;;;;;;;11.96;100.00;102237.38;5073043;28;20127;-83
2022/01/01 00:46:27;;;;;;;49.42;16.33;;;;;;;11.91;100.00;102245.16;5091859;28;20285;-82
2022/01/01 00:52:15;;;;;;;56.60;17.42;;;;;;;11.88;100.00;102232.16;5091738;28;20372;-82
2022/01/01 00:58:02;;;;;;;46.03;16.25;;;;;;;11.88;100.00;102243.69;5091642;28;20071;-83
2022/01/01 01:07:27;;;;;;;50.28;16.08;;;;;;;11.77;100.00;102250.31;5093811;28;20077;-82
2022/01/01 01:09:52;;;;;;;42.47;15.15;;;;;;;11.78;100.00;102240.47;5094742;28;20500;-81
2022/01/01 01:15:39;;;;;;;51.33;17.55;;;;;;;11.78;100.00;102240.47;5095040;28;20404;-83
2022/01/01 01:18:05;;;;;;;43.75;15.95;;;;;;;11.74;100.00;102231.09;5094655;28;20028;-81
2022/01/01 01:20:31;;;;;;;48.88;17.33;;;;;;;11.75;100.00;102233.59;5093771;28;20070;-82
2022/01/01 01:22:56;;;;;;;62.08;17.10;;;;;;;11.71;100.00;102236.84;5076348;28;20028;-83
2022/01/01 01:25:24;;;;;;;48.80;17.85;;;;;;;11.67;100.00;102239.06;5093931;28;20055;-80
2022/01/01 01:27:50;;;;;;;50.63;17.90;;;;;;;11.71;100.00;102240.34;5076565;28;20472;-80
2022/01/01 01:33:37;;;;;;;55.22;18.10;;;;;;;11.70;100.00;102261.97;5094647;28;20043;-81
2022/01/01 01:36:03;;;;;;;43.45;14.90;;;;;;;11.62;100.00;102249.53;5094569;28;20083;-81
2022/01/01 01:38:28;;;;;;;52.35;18.90;;;;;;;11.64;100.00;102260.06;5093502;28;20384;-80
2022/01/01 01:44:22;;;;;;;54.40;18.55;;;;;;;11.64;100.00;102260.06;5094521;28;20269;-78
2022/01/01 01:50:12;;;;;;;56.17;18.33;;;;;;;11.60;100.00;102267.63;5094286;28;20043;-79
2022/01/01 01:56:00;;;;;;;61.45;18.42;;;;;;;11.56;100.00;102276.19;5094463;28;20054;-80
2022/01/01 01:58:27;;;;;;;46.05;16.63;;;;;;;11.58;100.00;102276.88;5094099;28;20016;-80
2022/01/01 02:06:44;;;;;;;47.67;17.42;;;;;;;11.51;100.00;102266.03;5094310;28;20043;-80
2022/01/01 02:09:11;;;;;;;46.92;16.35;;;;;;;11.58;100.00;102263.47;5093979;28;20077;-79
2022/01/01 02:11:37;;;;;;;47.92;18.15;;;;;;;11.52;100.00;102261.53;5075237;28;20039;-83
2022/01/01 02:17:29;;;;;;;50.70;17.13;;;;;;;11.65;100.00;102283.97;5093367;28;20086;-83
2022/01/01 02:20:00;;;;;;;46.08;18.60;;;;;;;11.58;100.00;102268.84;5093172;28;20504;-83
2022/01/01 02:22:50;;;;;;;47.80;18.08;;;;;;;11.67;100.00;102273.06;5093589;28;20039;-82
2022/01/01 02:28:40;;;;;;;50.83;16.27;;;;;;;11.63;100.00;102266.44;5093883;28;20069;-80
2022/01/01 02:34:28;;;;;;;48.50;18.25;;;;;;;11.59;100.00;102252.56;5093547;28;20077;-81
2022/01/01 02:36:53;;;;;;;48.75;17.65;;;;;;;11.62;100.00;102257.56;5074809;28;20032;-83
2022/01/01 02:39:22;;;;;;;43.65;18.00;;;;;;;11.66;100.00;102266.06;5093293;28;20028;-80
2022/01/01 02:45:11;;;;;;;45.85;18.05;;;;;;;11.68;100.00;102264.03;5093677;28;20093;-80
2022/01/01 02:47:37;;;;;;;37.63;16.23;;;;;;;11.70;100.00;102270.84;5092678;28;20075;-80
2022/01/01 02:50:04;;;;;;;40.55;15.90;;;;;;;11.71;100.00;102260.97;5093165;28;20042;-82
2022/01/01 02:52:29;;;;;;;53.13;18.50;;;;;;;11.70;100.00;102262.81;5093279;28;20036;-79
2022/01/01 02:54:54;;;;;;;47.10;18.70;;;;;;;11.65;100.00;102254.50;5074564;28;20032;-79
2022/01/01 02:57:20;;;;;;;48.00;18.83;;;;;;;11.66;100.00;102252.66;5093234;28;20770;-79
2022/01/01 02:59:45;;;;;;;43.47;18.08;;;;;;;11.72;100.00;102241.19;5092281;28;20096;-80
2022/01/01 03:05:32;;;;;;;53.08;20.80;;;;;;;11.63;100.00;102229.75;5092394;28;20768;-81
2022/01/01 03:07:57;;;;;;;47.28;20.52;;;;;;;11.71;100.00;102239.53;5092897;28;20032;-81
2022/01/01 03:13:45;;;;;;;45.67;19.00;;;;;;;11.69;100.00;102238.88;5093017;28;20035;-81
2022/01/01 03:16:11;;;;;;;46.90;20.27;;;;;;;11.72;100.00;102243.88;5074559;28;20594;-84
2022/01/01 03:18:37;;;;;;;54.08;20.95;;;;;;;11.70;100.00;102243.22;5092089;28;20039;-82
2022/01/01 03:21:03;;;;;;;48.67;18.83;;;;;;;11.68;100.00;102245.25;5092775;28;20495;-83
2022/01/01 03:23:28;;;;;;;56.33;20.52;;;;;;;11.67;100.00;102235.56;5091977;28;20039;-81
2022/01/01 03:29:15;;;;;;;44.92;18.38;;;;;;;11.64;100.00;102228.72;5092244;28;20571;-80
2022/01/01 03:31:41;;;;;;;46.95;18.75;;;;;;;11.67;100.00;102238.25;5092593;28;20025;-83
2022/01/01 03:34:06;;;;;;;43.65;19.60;;;;;;;11.64;100.00;102222.53;5092848;28;20055;-82
2022/01/01 03:36:31;;;;;;;50.58;19.60;;;;;;;11.64;100.00;102220.69;5091483;28;20043;-82
2022/01/01 03:38:57;;;;;;;49.55;18.42;;;;;;;11.66;100.00;102233.91;5092565;28;20449;-82
2022/01/01 03:41:23;;;;;;;47.30;18.45;;;;;;;11.68;100.00;102229.19;5074065;28;20040;-83
2022/01/01 03:43:48;;;;;;;40.70;16.55;;;;;;;11.64;100.00;102239.44;5092497;28;20043;-81
2022/01/01 03:46:14;;;;;;;39.13;17.20;;;;;;;11.57;100.00;102241.22;5074221;28;20028;-81
2022/01/01 03:52:01;;;;;;;42.92;17.40;;;;;;;11.44;100.00;102223.09;5092499;28;20084;-80
2022/01/01 03:54:26;;;;;;;38.88;17.23;;;;;;;11.50;100.00;102229.56;5073575;28;20040;-81
2022/01/01 04:00:13;;;;;;;43.17;15.85;;;;;;;11.58;100.00;102220.63;5092019;28;20301;-80
2022/01/01 04:02:39;;;;;;;41.05;18.13;;;;;;;11.62;100.00;102224.56;5092234;28;20020;-80
2022/01/01 04:05:05;;;;;;;44.95;16.95;;;;;;;11.59;100.00;102220.44;5073183;28;20459;-80
2022/01/01 04:07:31;;;;;;;46.38;17.50;;;;;;;11.59;100.00;102233.81;5074149;28;20081;-79
2022/01/01 04:13:18;;;;;;;44.80;15.32;;;;;;;11.58;100.00;102223.28;5092321;28;20051;-80
2022/01/01 04:15:43;;;;;;;42.08;15.75;;;;;;;11.59;100.00;102223.09;5073982;28;20024;-80
2022/01/01 04:18:11;;;;;;;47.03;15.80;;;;;;;11.61;100.00;102222.91;5091070;28;20040;-79
2022/01/01 04:20:37;;;;;;;35.88;14.20;;;;;;;11.69;100.00;102212.91;5073845;28;20020;-79
2022/01/01 04:23:07;;;;;;;37.38;14.57;;;;;;;11.66;100.00;102218.66;5091221;28;20040;-81
2022/01/01 04:28:54;;;;;;;35.40;13.73;;;;;;;11.64;100.00;102209.16;5091381;28;20453;-80
2022/01/01 04:31:19;;;;;;;32.67;12.32;;;;;;;11.70;100.00;102221.78;5091973;28;20111;-80
2022/01/01 04:37:12;;;;;;;33.15;14.73;;;;;;;11.69;100.00;102226.31;5091944;28;20122;-81
2022/01/01 04:39:38;;;;;;;32.00;16.00;;;;;;;11.68;100.00;102221.97;5091561;28;20032;-80
2022/01/01 04:42:03;;;;;;;35.55;12.60;;;;;;;11.69;100.00;102231.69;5093135;28;20442;-82
2022/01/01 04:44:29;;;;;;;38.35;12.93;;;;;;;11.77;100.00;102239.59;5077138;28;20024;-81
2022/01/01 04:50:15;;;;;;;33.10;12.65;;;;;;;11.66;100.00;102225.88;5095233;28;20327;-82
2022/01/01 04:56:06;;;;;;;31.17;11.50;;;;;;;11.82;100.00;102240.91;5095452;28;20054;-82
2022/01/01 04:58:32;;;;;;;30.17;12.20;;;;;;;11.79;100.00;102232.22;5076349;28;20385;-82
2022/01/01 05:04:19;;;;;;;33.47;12.32;;;;;;;11.75;100.00;102241.63;5095330;28;20062;-81
2022/01/01 05:06:49;;;;;;;27.50;11.20;;;;;;;11.74;100.00;102236.47;5094919;28;20091;-79
2022/01/01 05:09:14;;;;;;;32.58;12.73;;;;;;;11.76;100.00;102242.47;5094751;28;20025;-80
2022/01/01 05:11:40;;;;;;;28.77;10.43;;;;;;;11.71;100.00;102229.63;5094421;28;20113;-80
2022/01/01 05:14:05;;;;;;;30.58;12.43;;;;;;;11.79;100.00;102242.13;5094829;28;20035;-80
2022/01/01 05:16:31;;;;;;;31.30;12.07;;;;;;;11.84;100.00;102250.44;5076076;28;20127;-80
2022/01/01 05:22:18;;;;;;;26.75;11.65;;;;;;;11.71;100.00;102250.25;5094925;28;20414;-80
2022/01/01 05:24:43;;;;;;;30.85;11.40;;;;;;;11.76;100.00;102251.34;5094648;28;20028;-81
2022/01/01 05:27:09;;;;;;;36.47;11.70;;;;;;;11.72;100.00;102251.91;5093794;28;20040;-81
2022/01/01 05:29:34;;;;;;;26.60;10.95;;;;;;;11.76;100.00;102261.22;5076325;28;20050;-81
2022/01/01 05:31:59;;;;;;;26.92;11.40;;;;;;;11.72;100.00;102241.19;5094658;28;20075;-81
2022/01/01 05:34:24;;;;;;;28.20;11.68;;;;;;;11.69;100.00;102241.56;5093690;28;20036;-82
2022/01/01 05:36:50;;;;;;;33.33;12.53;;;;;;;11.64;100.00;102247.47;5094564;28;20020;-80
2022/01/01 05:39:15;;;;;;;30.80;12.65;;;;;;;11.66;100.00;102252.66;5093667;28;20290;-81
2022/01/01 05:41:40;;;;;;;27.63;11.82;;;;;;;11.61;100.00;102242.50;5094394;28;20416;-81
2022/01/01 05:44:06;;;;;;;28.52;10.00;;;;;;;11.74;100.00;102257.91;5076234;28;20038;-83
2022/01/01 05:46:32;;;;;;;26.58;11.27;;;;;;;11.69;100.00;102246.91;5075781;28;20032;-81
2022/01/01 05:48:58;;;;;;;34.15;11.05;;;;;;;11.72;100.00;102258.09;5076270;28;20031;-82
2022/01/01 05:51:23;;;;;;;33.70;12.27;;;;;;;11.66;100.00;102249.97;5075516;28;20051;-81
2022/01/01 05:53:48;;;;;;;28.10;10.48;;;;;;;11.61;100.00;102242.50;5092911;28;20036;-80
2022/01/01 05:56:14;;;;;;;31.08;10.77;;;;;;;11.68;100.00;102247.94;5093790;28;21879;-81
2022/01/01 05:58:39;;;;;;;29.33;11.15;;;;;;;11.63;100.00;102236.97;5093988;28;20128;-81
2022/01/01 06:01:04;;;;;;;25.80;9.80;;;;;;;11.69;100.00;102239.72;5094076;28;20071;-81
2022/01/01 06:03:31;;;;;;;27.75;11.70;;;;;;;11.65;100.00;102242.97;5093143;28;20278;-82
2022/01/01 06:05:56;;;;;;;33.90;11.52;;;;;;;11.60;100.00;102235.47;5075874;28;20032;-81
2022/01/01 06:08:22;;;;;;;26.95;10.82;;;;;;;11.56;100.00;102228.81;5093162;28;20047;-82
2022/01/01 06:10:47;;;;;;;32.75;12.57;;;;;;;11.56;100.00;102231.50;5075824;28;20468;-82
2022/01/01 06:13:12;;;;;;;38.08;10.85;;;;;;;11.52;100.00;102218.66;5093992;28;20377;-83
2022/01/01 06:15:37;;;;;;;21.63;10.77;;;;;;;11.47;100.00;102214.69;5093201;28;20392;-84
2022/01/01 06:18:03;;;;;;;29.10;10.57;;;;;;;11.43;100.00;102221.44;5093842;28;20270;-83
2022/01/01 06:20:28;;;;;;;31.88;9.57;;;;;;;11.46;100.00;102234.47;5092931;28;20048;-82
2022/01/01 06:26:15;;;;;;;26.08;9.90;;;;;;;11.37;100.00;102230.22;5093716;28;20043;-81
2022/01/01 06:32:03;;;;;;;29.10;8.90;;;;;;;11.32;100.00;102232.63;5092909;28;20343;-80
2022/01/01 06:34:28;;;;;;;30.58;11.00;;;;;;;11.26;100.00;102233.34;5075234;28;20438;-79
2022/01/01 06:36:53;;;;;;;21.35;10.02;;;;;;;11.14;100.00;102226.78;5075320;28;20101;-80
2022/01/01 06:39:18;;;;;;;22.42;9.90;;;;;;;11.09;100.00;102232.72;5092431;28;20040;-80
2022/01/01 06:41:44;;;;;;;28.70;9.13;;;;;;;11.05;100.00;102227.91;5075161;28;20032;-80
2022/01/01 06:44:09;;;;;;;33.42;10.70;;;;;;;11.04;100.00;102231.59;5074332;28;20043;-81
2022/01/01 06:46:34;;;;;;;25.23;9.73;;;;;;;11.06;100.00;102234.91;5093258;28;20033;-80
2022/01/01 06:49:00;;;;;;;29.48;11.27;;;;;;;11.09;100.00;102238.06;5093054;28;20095;-81
2022/01/01 06:51:25;;;;;;;26.05;9.52;;;;;;;11.09;100.00;102240.75;5092423;28;20044;-82
2022/01/01 06:53:50;;;;;;;23.02;8.65;;;;;;;10.99;100.00;102232.16;5093307;28;20391;-82
2022/01/01 06:56:15;;;;;;;32.13;9.10;;;;;;;10.99;100.00;102239.34;5092449;28;20577;-81
2022/01/01 06:58:41;;;;;;;24.17;9.20;;;;;;;11.02;100.00;102242.50;5093224;28;20036;-83
2022/01/01 07:04:28;;;;;;;26.35;10.45;;;;;;;11.07;100.00;102252.63;5092635;28;20466;-82
2022/01/01 07:06:53;;;;;;;22.23;7.72;;;;;;;11.14;100.00;102248.22;5093121;28;20023;-82
2022/01/01 07:09:18;;;;;;;25.25;8.80;;;;;;;11.18;100.00;102255.69;5092262;28;20123;-82
2022/01/01 07:11:44;;;;;;;26.40;9.75;;;;;;;11.21;100.00;102265.19;5093069;28;20441;-82
2022/01/01 07:14:10;;;;;;;22.88;9.05;;;;;;;11.23;100.00;102259.66;5092034;28;20045;-81
2022/01/01 07:19:57;;;;;;;20.05;8.55;;;;;;;11.31;100.00;102267.63;5092156;28;20085;-81
2022/01/01 07:22:22;;;;;;;21.23;8.88;;;;;;;11.33;100.00;102260.25;5074574;28;20040;-82
2022/01/01 07:28:13;;;;;;;26.70;8.98;;;;;;;11.28;100.00;102265.31;5092967;28;20518;-81
2022/01/01 07:30:38;;;;;;;26.52;9.48;;;;;;;11.31;100.00;102273.81;5074295;28;20372;-81
2022/01/01 07:33:04;;;;;;;20.95;7.38;;;;;;;11.31;100.00;102272.97;5091904;28;20046;-81
2022/01/01 07:35:29;;;;;;;25.70;8.10;;;;;;;11.30;100.00;102274.00;5074347;28;20123;-82
2022/01/01 07:37:54;;;;;;;25.42;9.13;;;;;;;11.25;100.00;102277.19;5091841;28;20051;-81
2022/01/01 07:40:20;;;;;;;23.73;7.10;;;;;;;11.30;100.00;102288.22;5092334;28;20028;-81
2022/01/01 07:42:46;;;;;;;17.15;7.13;;;;;;;11.26;100.00;102284.22;5074305;28;20031;-81
2022/01/01 07:48:33;;;;;;;21.92;7.72;;;;;;;11.31;100.00;102295.25;5092668;28;20097;-81
2022/01/01 07:50:59;;;;;;;30.17;10.15;;;;;;;11.26;100.00;102280.72;5073692;28;20047;-80
2022/01/01 07:53:24;;;;;;;20.17;7.80;;;;;;;11.29;100.00;102296.44;5092476;28;20034;-81
2022/01/01 07:59:11;;;;;;;22.75;8.00;;;;;;;11.30;100.00;102303.47;5092746;28;20113;-80
2022/01/01 08:01:36;;;;;;;18.20;7.90;;;;;;;11.30;100.00;102306.97;5091181;28;20098;-80
2022/01/01 08:10:45;;;;;;;22.73;8.68;;;;;;;11.24;100.00;102298.81;5092293;28;20081;-82
2022/01/01 08:13:10;;;;;;;25.17;10.13;;;;;;;11.25;100.00;102306.66;5091250;28;20115;-81
2022/01/01 08:22:19;;;;;;;22.15;9.05;;;;;;;11.30;100.00;102312.31;5092291;28;20047;-83
2022/01/01 08:28:07;;;;;;;24.10;8.23;;;;;;;11.32;100.00;102285.38;5091789;28;20043;-83
2022/01/01 08:33:54;;;;;;;23.23;8.50;;;;;;;11.38;100.00;102309.56;5092233;28;20093;-79
2022/01/01 08:39:41;;;;;;;29.30;9.13;;;;;;;11.47;100.00;102305.75;5091751;28;20105;-78
2022/01/01 08:45:29;;;;;;;24.50;8.57;;;;;;;11.41;100.00;102294.97;5092101;28;20132;-78
2022/01/01 08:51:21;;;;;;;28.83;9.52;;;;;;;11.35;100.00;102306.41;5091850;28;20097;-79
2022/01/01 08:57:09;;;;;;;23.92;9.10;;;;;;;11.34;100.00;102305.59;5091567;28;20082;-82
2022/01/01 09:02:56;;;;;;;19.85;7.90;;;;;;;11.40;100.00;102298.66;5091923;28;20046;-81
2022/01/01 09:08:43;;;;;;;29.05;10.80;;;;;;;11.45;100.00;102299.75;5091789;28;20069;-81
2022/01/01 09:11:10;;;;;;;20.00;8.45;;;;;;;11.42;100.00;102284.06;5091276;28;20119;-82
2022/01/01 09:16:57;;;;;;;21.15;9.23;;;;;;;11.41;100.00;102294.97;5091375;28;20043;-81
2022/01/01 09:22:45;;;;;;;26.00;9.88;;;;;;;11.34;100.00;102268.09;5091660;28;20462;-83
2022/01/01 09:28:34;;;;;;;26.48;9.93;;;;;;;11.42;100.00;102286.75;5094234;28;20057;-82
2022/01/01 09:34:21;;;;;;;31.70;12.15;;;;;;;11.40;100.00;102278.06;5094887;28;20085;-82
2022/01/01 09:36:47;;;;;;;29.33;9.93;;;;;;;11.46;100.00;102269.28;5072724;28;20028;-82
2022/01/01 09:39:13;;;;;;;25.20;10.18;;;;;;;11.57;100.00;102285.94;5081142;28;20035;-81
2022/01/01 09:45:04;;;;;;;24.88;10.95;;;;;;;11.60;100.00;102277.53;5094792;28;20154;-81
2022/01/01 09:47:30;;;;;;;30.00;11.20;;;;;;;11.54;100.00;102276.38;5075389;28;20036;-83
2022/01/01 09:53:20;;;;;;;25.27;11.20;;;;;;;11.44;100.00;102257.91;5094390;28;20059;-90
2022/01/01 09:59:07;;;;;;;28.73;12.27;;;;;;;11.63;100.00;102287.88;5094201;28;20506;-84
2022/01/01 10:04:54;;;;;;;27.75;11.77;;;;;;;11.87;100.00;102273.38;5088851;28;20035;-83
2022/01/01 10:07:27;;;;;;;24.40;9.98;;;;;;;11.86;100.00;102259.13;5094091;28;20059;-84
2022/01/01 10:13:16;;;;;;;27.90;11.70;;;;;;;11.84;100.00;102250.44;5094138;28;20151;-86
2022/01/01 10:15:42;;;;;;;23.10;9.25;;;;;;;12.10;100.00;102258.78;5074874;28;20055;-83
2022/01/01 10:18:07;;;;;;;26.10;10.70;;;;;;;12.03;100.00;102239.13;5075691;28;20031;-85
2022/01/01 10:23:57;;;;;;;24.48;10.00;;;;;;;12.23;100.00;102236.66;5093778;28;20043;-83
2022/01/01 10:29:50;;;;;;;28.35;11.40;;;;;;;11.69;100.00;102180.75;5031742;28;20128;-82
2022/01/01 11:17:58;;;;;;;21.13;10.27;;;;;;;11.89;100.00;102162.28;1485098;26;20041;-83
2022/01/01 11:23:48;;;;;;;23.73;9.18;;;;;;;12.47;100.00;102170.25;5052550;28;20094;-82
2022/01/01 11:29:49;;;;;;;22.23;7.60;;;;;;;12.71;100.00;102161.72;5052843;28;20103;-80
2022/01/01 11:35:46;;;;;;;16.63;7.63;;;;;;;12.75;100.00;102133.50;5052342;28;20091;-81
2022/01/01 11:44:55;;;;;;;15.60;7.35;;;;;;;13.09;100.00;102170.25;5032408;28;20096;-80
2022/01/01 11:50:43;;;;;;;19.42;7.70;;;;;;;13.21;100.00;102175.94;5031286;28;20168;-80
2022/01/01 11:53:30;;;;;;;15.30;7.47;;;;;;;12.90;100.00;102165.59;5017352;28;20063;-82
2022/01/01 11:59:18;;;;;;;22.83;7.57;;;;;;;12.55;100.00;102127.16;5035186;28;20044;-82
2022/01/01 12:01:43;;;;;;;18.52;8.23;;;;;;;12.64;100.00;102150.13;5031859;28;20398;-81
2022/01/01 12:04:23;;;;;;;18.50;8.68;;;;;;;12.56;100.00;102135.00;5030756;28;20056;-82
2022/01/01 12:13:58;;;;;;;18.27;7.20;;;;;;;12.63;100.00;102167.25;5032115;28;20067;-79
2022/01/01 12:19:46;;;;;;;19.30;7.55;;;;;;;12.65;100.00;102151.78;5031805;28;20040;-80
2022/01/01 12:22:13;;;;;;;17.90;8.88;;;;;;;12.64;100.00;102125.97;5034661;28;20364;-80
2022/01/01 12:28:07;;;;;;;17.77;8.02;;;;;;;13.05;100.00;102135.94;5032265;28;20182;-81
2022/01/01 12:30:37;;;;;;;15.48;7.25;;;;;;;13.61;100.00;102142.03;5030344;28;20459;-83
2022/01/01 12:36:31;;;;;;;12.35;7.07;;;;;;;13.87;98.80;102115.16;5031973;28;20449;-83
2022/01/01 12:42:32;;;;;;;18.55;8.38;;;;;;;13.30;100.00;102097.69;5031888;28;20040;-83
2022/01/01 12:45:00;;;;;;;20.60;7.70;;;;;;;13.45;100.00;102107.44;5014507;28;20033;-82
2022/01/01 12:47:35;;;;;;;22.58;7.57;;;;;;;13.08;100.00;102057.69;5015492;28;20045;-84
2022/01/01 12:50:07;;;;;;;19.05;9.05;;;;;;;13.22;100.00;102084.41;5030076;28;20503;-82
2022/01/01 12:52:35;;;;;;;23.17;9.25;;;;;;;13.51;99.85;102069.00;5033406;28;20379;-83
2022/01/01 13:04:35;;;;;;;15.32;6.00;;;;;;;13.77;99.90;102103.16;5035223;28;20049;-86
2022/01/01 13:10:24;;;;;;;16.73;7.50;;;;;;;13.28;100.00;102091.66;5034924;28;20083;-81
2022/01/01 13:16:11;;;;;;;18.35;7.18;;;;;;;13.05;100.00;102090.31;5034976;28;20586;-81
2022/01/01 13:18:37;;;;;;;14.45;6.82;;;;;;;13.11;100.00;102087.63;5033317;28;20029;-83
2022/01/01 13:21:08;;;;;;;20.23;7.78;;;;;;;13.06;100.00;102081.22;5035740;28;20037;-82
2022/01/01 13:23:39;;;;;;;16.38;6.88;;;;;;;12.95;100.00;102061.13;5033156;28;20425;-82
2022/01/01 13:32:49;;;;;;;15.98;7.47;;;;;;;12.80;100.00;102002.22;5034383;28;20052;-80
2022/01/01 13:38:36;;;;;;;14.18;7.18;;;;;;;12.91;100.00;102052.63;5034198;28;20047;-81
2022/01/01 13:44:24;;;;;;;20.38;7.93;;;;;;;12.85;100.00;102060.66;5034254;28;20382;-85
2022/01/01 13:50:17;;;;;;;13.63;6.90;;;;;;;12.81;100.00;102030.72;5034174;28;20044;-81
2022/01/01 13:56:09;;;;;;;15.27;6.88;;;;;;;12.96;100.00;102065.47;5036242;28;20088;-81
2022/01/01 14:01:57;;;;;;;23.13;8.02;;;;;;;12.97;100.00;102091.28;5033787;28;20047;-80
2022/01/01 14:04:25;;;;;;;17.55;8.25;;;;;;;12.96;100.00;102089.63;5033782;28;20025;-81
2022/01/01 14:07:06;;;;;;;15.70;6.88;;;;;;;13.03;100.00;102085.13;5033789;28;20044;-80
2022/01/01 14:09:31;;;;;;;14.90;7.03;;;;;;;13.01;100.00;102076.44;5036525;28;20044;-79
2022/01/01 14:11:57;;;;;;;11.38;5.93;;;;;;;13.08;100.00;102092.59;5033736;28;20026;-79
2022/01/01 14:14:29;;;;;;;15.18;6.63;;;;;;;13.07;100.00;102074.81;5035427;28;20048;-79
2022/01/01 14:16:54;;;;;;;12.77;6.53;;;;;;;13.09;100.00;102080.81;5033760;28;20490;-80
2022/01/01 14:19:22;;;;;;;18.17;6.28;;;;;;;13.10;100.00;102079.78;5033987;28;20314;-81
2022/01/01 14:21:50;;;;;;;11.40;6.53;;;;;;;13.10;100.00;102080.63;5035675;28;20179;-79
2022/01/01 14:24:18;;;;;;;12.93;7.03;;;;;;;13.04;100.00;102084.09;5033394;28;20033;-80
2022/01/01 14:26:49;;;;;;;14.73;6.88;;;;;;;13.00;100.00;102088.19;5036147;28;20049;-80
2022/01/01 14:29:17;;;;;;;12.15;5.88;;;;;;;13.04;100.00;102089.47;5033198;28;20033;-80
2022/01/01 14:31:43;;;;;;;14.52;5.72;;;;;;;12.95;100.00;102077.22;5018561;28;20067;-80
2022/01/01 14:37:31;;;;;;;14.13;7.22;;;;;;;12.81;100.00;102080.88;5033428;28;20141;-80
2022/01/01 14:39:57;;;;;;;13.65;6.35;;;;;;;12.83;100.00;102086.88;5032987;28;20029;-80
2022/01/01 14:42:22;;;;;;;13.27;6.53;;;;;;;12.76;100.00;102086.03;5031816;28;20030;-79
2022/01/01 14:44:47;;;;;;;13.10;6.00;;;;;;;12.66;100.00;102079.13;5035869;28;20045;-80
2022/01/01 14:47:22;;;;;;;12.43;6.57;;;;;;;12.64;100.00;102086.56;5031693;28;20741;-79
2022/01/01 14:49:54;;;;;;;13.95;6.20;;;;;;;12.59;100.00;102097.06;5035769;28;20324;-79
2022/01/01 14:52:31;;;;;;;10.27;5.70;;;;;;;12.54;100.00;102087.94;5033055;28;20394;-80
2022/01/01 14:58:30;;;;;;;10.40;4.93;;;;;;;12.54;100.00;102079.91;5032857;28;20645;-81
2022/01/01 15:00:55;;;;;;;19.10;5.85;;;;;;;12.53;100.00;102084.44;5034567;28;20068;-80
2022/01/01 15:03:20;;;;;;;12.07;6.43;;;;;;;12.52;100.00;102076.56;5032809;28;20068;-79
2022/01/01 15:05:50;;;;;;;12.45;5.95;;;;;;;12.48;100.00;102081.50;5033028;28;20025;-80
2022/01/01 15:08:16;;;;;;;14.00;5.85;;;;;;;12.37;100.00;102069.44;5034552;28;20105;-80
2022/01/01 15:10:43;;;;;;;12.88;5.82;;;;;;;12.43;100.00;102081.25;5032732;28;20026;-80
2022/01/01 15:13:09;;;;;;;12.45;6.00;;;;;;;12.35;100.00;102073.34;5035561;28;20116;-79
2022/01/01 15:15:34;;;;;;;12.07;5.25;;;;;;;12.33;100.00;102070.88;5032468;28;20470;-80
2022/01/01 15:18:03;;;;;;;10.13;5.57;;;;;;;12.29;100.00;102074.13;5035660;28;20045;-79
2022/01/01 15:20:28;;;;;;;12.48;5.25;;;;;;;12.28;100.00;102065.25;5031294;28;20531;-77
2022/01/01 15:23:03;;;;;;;7.57;4.72;;;;;;;12.35;100.00;102063.44;5031215;28;20025;-80
2022/01/01 15:25:29;;;;;;;11.75;5.35;;;;;;;12.39;100.00;102039.75;5033955;28;20088;-79
2022/01/01 15:27:55;;;;;;;8.10;4.55;;;;;;;12.29;100.00;102021.34;5032525;28;20100;-78
2022/01/01 15:30:45;;;;;;;11.27;5.15;;;;;;;12.28;100.00;102016.16;5035320;28;20068;-79
2022/01/01 15:33:21;;;;;;;13.05;5.53;;;;;;;12.28;100.00;102035.75;5031156;28;20025;-79
2022/01/01 15:40:58;;;;;;;9.20;5.50;;;;;;;12.22;100.00;102022.31;5032296;28;20074;-80
2022/01/01 15:43:25;;;;;;;13.35;4.75;;;;;;;12.16;100.00;102015.88;5024439;28;20041;-80
2022/01/01 15:45:51;;;;;;;14.30;5.20;;;;;;;12.19;100.00;102017.34;5031953;28;20063;-80
2022/01/01 15:48:18;;;;;;;8.98;5.15;;;;;;;12.15;100.00;102006.19;5034874;28;20080;-79
2022/01/01 15:50:47;;;;;;;10.32;5.15;;;;;;;12.12;100.00;102008.41;5032074;28;20496;-79
2022/01/01 15:53:19;;;;;;;11.95;5.00;;;;;;;12.16;100.00;102007.84;5034855;28;20047;-80
2022/01/01 15:59:10;;;;;;;10.02;5.15;;;;;;;12.09;100.00;101986.31;5032155;28;20405;-79
2022/01/01 16:01:46;;;;;;;9.50;5.03;;;;;;;12.13;100.00;101989.44;5031852;28;20038;-80
2022/01/01 16:04:22;;;;;;;11.43;5.95;;;;;;;12.15;100.00;101989.28;5033438;28;20501;-80
2022/01/01 16:06:50;;;;;;;9.13;5.35;;;;;;;12.09;100.00;101970.25;5032174;28;20045;-80
2022/01/01 16:09:26;;;;;;;9.93;4.85;;;;;;;12.19;100.00;101983.31;5031900;28;20374;-80
2022/01/01 16:11:52;;;;;;;9.32;5.45;;;;;;;12.23;100.00;101986.44;5033771;28;20071;-79
2022/01/01 16:14:23;;;;;;;10.05;4.57;;;;;;;12.23;100.00;101981.91;5031763;28;20025;-80
2022/01/01 16:16:49;;;;;;;10.90;5.45;;;;;;;12.17;100.00;101974.66;5034588;28;20041;-79
2022/01/01 16:19:17;;;;;;;10.57;4.88;;;;;;;12.19;100.00;101971.75;5014060;28;20030;-80
2022/01/01 16:21:45;;;;;;;9.05;5.53;;;;;;;12.15;100.00;101955.25;5034561;28;20051;-80
2022/01/01 16:24:11;;;;;;;9.52;4.88;;;;;;;12.14;100.00;101968.81;5030508;28;20056;-80
2022/01/01 16:26:37;;;;;;;8.18;4.95;;;;;;;12.19;100.00;101977.94;5031772;28;20021;-80
2022/01/01 16:29:02;;;;;;;12.50;5.20;;;;;;;12.11;100.00;101964.69;5034621;28;20048;-80
2022/01/01 16:31:28;;;;;;;7.65;4.78;;;;;;;12.06;100.00;101967.94;5031583;28;20080;-80
2022/01/01 16:33:53;;;;;;;10.20;4.90;;;;;;;12.03;100.00;101963.00;5034565;28;20050;-80
2022/01/01 16:36:25;;;;;;;10.00;4.68;;;;;;;12.10;100.00;101963.03;5030093;28;20053;-80
2022/01/01 16:38:51;;;;;;;9.70;5.25;;;;;;;12.06;100.00;101953.72;5037562;28;20064;-80
2022/01/01 16:41:22;;;;;;;9.93;4.80;;;;;;;12.04;100.00;101963.81;5033646;28;20052;-80
2022/01/01 16:43:48;;;;;;;12.05;4.97;;;;;;;11.99;100.00;101963.56;5034809;28;20033;-80
2022/01/01 16:46:17;;;;;;;12.00;5.00;;;;;;;11.99;100.00;101961.72;5038019;28;20112;-80
2022/01/01 16:48:50;;;;;;;12.40;4.95;;;;;;;11.95;100.00;101963.16;5033963;28;20474;-80
2022/01/01 16:51:18;;;;;;;;;;;;;;;11.93;100.00;101967.03;5038485;28;20049;-80
2022/01/01 16:53:44;;;;;;;7.30;4.72;;;;;;;11.90;100.00;101970.94;5033610;28;19972;-80